sensor_id;sensor_type;location;lat;lon;timestamp;P1;durP1;ratioP1;P2;durP2;ratioP2
62268;SDS011;56517;51.634;5.566;2023-02-28T00:01:06;22.85;;;11.98;;
62268;SDS011;56517;51.634;5.566;2023-02-28T00:06:26;18.73;;;11.60;;
62268;SDS011;56517;51.634;5.566;2023-02-28T00:11:47;18.48;;;11.57;;
62268;SDS011;56517;51.634;5.566;2023-02-28T00:17:08;15.77;;;11.48;;
62268;SDS011;56517;51.634;5.566;2023-02-28T00:22:29;15.10;;;11.15;;
62268;SDS011;56517;51.634;5.566;2023-02-28T00:27:50;22.52;;;10.50;;
62268;SDS011;56517;51.634;5.566;2023-02-28T00:33:11;22.38;;;11.30;;
62268;SDS011;56517;51.634;5.566;2023-02-28T00:38:31;36.40;;;14.80;;
62268;SDS011;56517;51.634;5.566;2023-02-28T00:43:52;24.67;;;13.02;;
62268;SDS011;56517;51.634;5.566;2023-02-28T00:49:13;36.42;;;14.75;;
62268;SDS011;56517;51.634;5.566;2023-02-28T00:54:34;31.50;;;13.00;;
62268;SDS011;56517;51.634;5.566;2023-02-28T00:59:55;30.13;;;12.55;;
62268;SDS011;56517;51.634;5.566;2023-02-28T01:05:16;27.85;;;10.70;;
62268;SDS011;56517;51.634;5.566;2023-02-28T01:10:37;15.73;;;11.32;;
62268;SDS011;56517;51.634;5.566;2023-02-28T01:15:57;24.05;;;11.85;;
62268;SDS011;56517;51.634;5.566;2023-02-28T01:21:19;18.65;;;12.05;;
62268;SDS011;56517;51.634;5.566;2023-02-28T01:26:40;18.27;;;11.50;;
62268;SDS011;56517;51.634;5.566;2023-02-28T01:32:01;22.77;;;11.30;;
62268;SDS011;56517;51.634;5.566;2023-02-28T01:37:22;27.75;;;13.15;;
62268;SDS011;56517;51.634;5.566;2023-02-28T01:42:43;25.67;;;13.10;;
62268;SDS011;56517;51.634;5.566;2023-02-28T01:48:05;19.73;;;11.55;;
62268;SDS011;56517;51.634;5.566;2023-02-28T01:53:29;21.35;;;12.77;;
62268;SDS011;56517;51.634;5.566;2023-02-28T01:58:51;22.65;;;11.32;;
62268;SDS011;56517;51.634;5.566;2023-02-28T02:04:12;25.90;;;12.95;;
62268;SDS011;56517;51.634;5.566;2023-02-28T02:09:33;19.42;;;12.52;;
62268;SDS011;56517;51.634;5.566;2023-02-28T02:15:12;31.10;;;12.52;;
62268;SDS011;56517;51.634;5.566;2023-02-28T02:37:02;21.73;;;12.98;;
62268;SDS011;56517;51.634;5.566;2023-02-28T02:42:31;17.13;;;11.82;;
62268;SDS011;56517;51.634;5.566;2023-02-28T02:47:54;22.10;;;13.88;;
62268;SDS011;56517;51.634;5.566;2023-02-28T02:53:17;31.65;;;12.85;;
62268;SDS011;56517;51.634;5.566;2023-02-28T02:58:40;17.45;;;11.07;;
62268;SDS011;56517;51.634;5.566;2023-02-28T03:04:03;18.00;;;11.75;;
62268;SDS011;56517;51.634;5.566;2023-02-28T03:09:25;30.90;;;12.85;;
62268;SDS011;56517;51.634;5.566;2023-02-28T03:20:26;23.58;;;11.77;;
62268;SDS011;56517;51.634;5.566;2023-02-28T03:31:16;23.30;;;12.38;;
62268;SDS011;56517;51.634;5.566;2023-02-28T03:36:47;25.83;;;11.77;;
62268;SDS011;56517;51.634;5.566;2023-02-28T03:42:12;21.35;;;12.05;;
62268;SDS011;56517;51.634;5.566;2023-02-28T03:53:34;23.70;;;11.50;;
62268;SDS011;56517;51.634;5.566;2023-02-28T04:09:37;22.70;;;11.25;;
62268;SDS011;56517;51.634;5.566;2023-02-28T04:14:57;23.17;;;12.25;;
62268;SDS011;56517;51.634;5.566;2023-02-28T04:20:18;29.45;;;13.02;;
62268;SDS011;56517;51.634;5.566;2023-02-28T04:25:39;20.20;;;11.77;;
62268;SDS011;56517;51.634;5.566;2023-02-28T04:31:03;20.02;;;10.55;;
62268;SDS011;56517;51.634;5.566;2023-02-28T04:36:24;31.90;;;13.32;;
62268;SDS011;56517;51.634;5.566;2023-02-28T04:41:45;18.48;;;11.05;;
62268;SDS011;56517;51.634;5.566;2023-02-28T04:47:06;19.60;;;11.02;;
62268;SDS011;56517;51.634;5.566;2023-02-28T04:52:27;16.45;;;10.30;;
62268;SDS011;56517;51.634;5.566;2023-02-28T04:57:48;20.02;;;11.55;;
62268;SDS011;56517;51.634;5.566;2023-02-28T05:03:09;19.83;;;11.07;;
62268;SDS011;56517;51.634;5.566;2023-02-28T05:08:29;21.05;;;10.88;;
62268;SDS011;56517;51.634;5.566;2023-02-28T05:13:50;13.52;;;10.13;;
62268;SDS011;56517;51.634;5.566;2023-02-28T05:19:11;13.77;;;9.98;;
62268;SDS011;56517;51.634;5.566;2023-02-28T05:24:32;15.98;;;10.13;;
62268;SDS011;56517;51.634;5.566;2023-02-28T05:29:53;18.40;;;9.85;;
62268;SDS011;56517;51.634;5.566;2023-02-28T05:35:14;16.13;;;10.43;;
62268;SDS011;56517;51.634;5.566;2023-02-28T05:45:55;15.30;;;10.23;;
62268;SDS011;56517;51.634;5.566;2023-02-28T05:51:16;20.98;;;10.60;;
62268;SDS011;56517;51.634;5.566;2023-02-28T05:56:37;21.75;;;10.02;;
62268;SDS011;56517;51.634;5.566;2023-02-28T06:01:58;26.75;;;12.32;;
62268;SDS011;56517;51.634;5.566;2023-02-28T06:07:19;18.92;;;11.10;;
62268;SDS011;56517;51.634;5.566;2023-02-28T06:12:39;24.55;;;11.65;;
62268;SDS011;56517;51.634;5.566;2023-02-28T06:18:00;14.70;;;9.98;;
62268;SDS011;56517;51.634;5.566;2023-02-28T06:23:21;12.70;;;9.63;;
62268;SDS011;56517;51.634;5.566;2023-02-28T06:28:42;20.80;;;10.77;;
62268;SDS011;56517;51.634;5.566;2023-02-28T06:39:23;20.90;;;11.02;;
62268;SDS011;56517;51.634;5.566;2023-02-28T06:44:44;15.32;;;9.35;;
62268;SDS011;56517;51.634;5.566;2023-02-28T06:50:06;25.58;;;11.60;;
62268;SDS011;56517;51.634;5.566;2023-02-28T06:55:27;16.60;;;11.10;;
62268;SDS011;56517;51.634;5.566;2023-02-28T07:00:50;15.32;;;10.27;;
62268;SDS011;56517;51.634;5.566;2023-02-28T07:06:11;23.95;;;12.60;;
62268;SDS011;56517;51.634;5.566;2023-02-28T07:11:32;28.02;;;13.48;;
62268;SDS011;56517;51.634;5.566;2023-02-28T07:16:53;21.30;;;11.07;;
62268;SDS011;56517;51.634;5.566;2023-02-28T07:22:14;21.27;;;11.27;;
62268;SDS011;56517;51.634;5.566;2023-02-28T07:27:35;13.80;;;10.48;;
62268;SDS011;56517;51.634;5.566;2023-02-28T07:32:55;16.13;;;10.57;;
62268;SDS011;56517;51.634;5.566;2023-02-28T07:38:16;20.58;;;10.95;;
62268;SDS011;56517;51.634;5.566;2023-02-28T07:43:37;20.02;;;10.98;;
62268;SDS011;56517;51.634;5.566;2023-02-28T07:48:58;17.60;;;11.43;;
62268;SDS011;56517;51.634;5.566;2023-02-28T07:54:19;13.07;;;10.10;;
62268;SDS011;56517;51.634;5.566;2023-02-28T08:05:00;11.13;;;7.50;;
62268;SDS011;56517;51.634;5.566;2023-02-28T08:15:41;10.23;;;6.65;;
62268;SDS011;56517;51.634;5.566;2023-02-28T08:26:23;14.25;;;7.18;;
62268;SDS011;56517;51.634;5.566;2023-02-28T08:37:04;38.15;;;12.57;;
62268;SDS011;56517;51.634;5.566;2023-02-28T08:47:46;11.00;;;7.20;;
62268;SDS011;56517;51.634;5.566;2023-02-28T08:58:27;11.98;;;7.00;;
62268;SDS011;56517;51.634;5.566;2023-02-28T09:03:49;12.13;;;7.03;;
62268;SDS011;56517;51.634;5.566;2023-02-28T09:09:10;11.73;;;7.63;;
62268;SDS011;56517;51.634;5.566;2023-02-28T09:14:31;8.43;;;5.90;;
62268;SDS011;56517;51.634;5.566;2023-02-28T09:25:12;11.18;;;6.75;;
62268;SDS011;56517;51.634;5.566;2023-02-28T09:36:00;10.65;;;6.40;;
62268;SDS011;56517;51.634;5.566;2023-02-28T09:41:22;10.80;;;5.97;;
62268;SDS011;56517;51.634;5.566;2023-02-28T09:46:44;11.00;;;6.47;;
62268;SDS011;56517;51.634;5.566;2023-02-28T09:52:11;17.40;;;6.80;;
62268;SDS011;56517;51.634;5.566;2023-02-28T09:57:37;15.65;;;6.78;;
62268;SDS011;56517;51.634;5.566;2023-02-28T10:08:28;11.18;;;7.22;;
62268;SDS011;56517;51.634;5.566;2023-02-28T10:13:51;9.30;;;7.10;;
62268;SDS011;56517;51.634;5.566;2023-02-28T10:19:14;13.32;;;8.48;;
62268;SDS011;56517;51.634;5.566;2023-02-28T10:24:50;12.85;;;7.60;;
62268;SDS011;56517;51.634;5.566;2023-02-28T10:30:11;7.90;;;6.85;;
62268;SDS011;56517;51.634;5.566;2023-02-28T10:35:32;9.32;;;7.63;;
62268;SDS011;56517;51.634;5.566;2023-02-28T10:41:03;11.32;;;7.70;;
62268;SDS011;56517;51.634;5.566;2023-02-28T10:46:25;10.25;;;6.93;;
62268;SDS011;56517;51.634;5.566;2023-02-28T10:51:45;7.18;;;6.20;;
62268;SDS011;56517;51.634;5.566;2023-02-28T10:57:08;12.45;;;7.75;;
62268;SDS011;56517;51.634;5.566;2023-02-28T11:08:04;10.98;;;7.22;;
62268;SDS011;56517;51.634;5.566;2023-02-28T11:13:28;8.18;;;6.32;;
62268;SDS011;56517;51.634;5.566;2023-02-28T11:18:51;10.00;;;7.10;;
62268;SDS011;56517;51.634;5.566;2023-02-28T11:24:26;14.27;;;7.65;;
62268;SDS011;56517;51.634;5.566;2023-02-28T11:29:47;12.52;;;7.43;;
62268;SDS011;56517;51.634;5.566;2023-02-28T11:51:35;12.43;;;7.35;;
62268;SDS011;56517;51.634;5.566;2023-02-28T11:57:14;8.35;;;6.47;;
62268;SDS011;56517;51.634;5.566;2023-02-28T12:02:50;16.70;;;7.78;;
62268;SDS011;56517;51.634;5.566;2023-02-28T12:30:28;7.45;;;6.57;;
62268;SDS011;56517;51.634;5.566;2023-02-28T12:35:57;7.70;;;6.18;;
62268;SDS011;56517;51.634;5.566;2023-02-28T12:41:19;11.00;;;6.32;;
62268;SDS011;56517;51.634;5.566;2023-02-28T12:46:44;8.90;;;6.30;;
62268;SDS011;56517;51.634;5.566;2023-02-28T12:52:07;9.90;;;6.82;;
62268;SDS011;56517;51.634;5.566;2023-02-28T12:57:36;6.82;;;5.97;;
62268;SDS011;56517;51.634;5.566;2023-02-28T13:14:03;7.40;;;6.35;;
62268;SDS011;56517;51.634;5.566;2023-02-28T13:19:26;13.68;;;6.18;;
62268;SDS011;56517;51.634;5.566;2023-02-28T13:24:54;7.97;;;6.60;;
62268;SDS011;56517;51.634;5.566;2023-02-28T13:36:06;7.90;;;6.25;;
62268;SDS011;56517;51.634;5.566;2023-02-28T13:52:12;8.82;;;6.47;;
62268;SDS011;56517;51.634;5.566;2023-02-28T14:03:07;10.75;;;7.25;;
62268;SDS011;56517;51.634;5.566;2023-02-28T14:08:30;8.05;;;6.40;;
62268;SDS011;56517;51.634;5.566;2023-02-28T14:13:53;9.82;;;7.13;;
62268;SDS011;56517;51.634;5.566;2023-02-28T14:19:19;10.43;;;6.78;;
62268;SDS011;56517;51.634;5.566;2023-02-28T14:35:36;10.30;;;7.45;;
62268;SDS011;56517;51.634;5.566;2023-02-28T14:41:01;12.65;;;6.95;;
62268;SDS011;56517;51.634;5.566;2023-02-28T14:46:25;11.80;;;7.25;;
62268;SDS011;56517;51.634;5.566;2023-02-28T14:51:50;15.43;;;8.73;;
62268;SDS011;56517;51.634;5.566;2023-02-28T14:57:22;11.20;;;7.43;;
62268;SDS011;56517;51.634;5.566;2023-02-28T15:02:43;12.48;;;7.43;;
62268;SDS011;56517;51.634;5.566;2023-02-28T15:08:11;19.90;;;9.18;;
62268;SDS011;56517;51.634;5.566;2023-02-28T15:13:38;11.15;;;7.18;;
62268;SDS011;56517;51.634;5.566;2023-02-28T15:19:07;12.45;;;8.27;;
62268;SDS011;56517;51.634;5.566;2023-02-28T15:24:35;14.07;;;8.13;;
62268;SDS011;56517;51.634;5.566;2023-02-28T15:29:58;9.68;;;8.23;;
62268;SDS011;56517;51.634;5.566;2023-02-28T15:40:49;9.95;;;7.50;;
62268;SDS011;56517;51.634;5.566;2023-02-28T15:46:11;9.52;;;7.72;;
62268;SDS011;56517;51.634;5.566;2023-02-28T15:51:33;17.50;;;8.23;;
62268;SDS011;56517;51.634;5.566;2023-02-28T15:56:55;19.67;;;9.57;;
62268;SDS011;56517;51.634;5.566;2023-02-28T16:02:18;12.98;;;8.05;;
62268;SDS011;56517;51.634;5.566;2023-02-28T16:07:41;19.65;;;9.05;;
62268;SDS011;56517;51.634;5.566;2023-02-28T16:13:02;12.27;;;7.63;;
62268;SDS011;56517;51.634;5.566;2023-02-28T16:18:23;14.00;;;8.65;;
62268;SDS011;56517;51.634;5.566;2023-02-28T16:29:04;17.55;;;9.05;;
62268;SDS011;56517;51.634;5.566;2023-02-28T16:34:26;13.02;;;8.00;;
62268;SDS011;56517;51.634;5.566;2023-02-28T16:45:11;13.48;;;7.80;;
62268;SDS011;56517;51.634;5.566;2023-02-28T16:50:35;12.27;;;7.13;;
62268;SDS011;56517;51.634;5.566;2023-02-28T17:01:17;12.52;;;8.15;;
62268;SDS011;56517;51.634;5.566;2023-02-28T17:06:38;17.95;;;9.23;;
62268;SDS011;56517;51.634;5.566;2023-02-28T17:17:20;17.52;;;9.18;;
62268;SDS011;56517;51.634;5.566;2023-02-28T17:22:41;18.33;;;9.18;;
62268;SDS011;56517;51.634;5.566;2023-02-28T17:28:02;13.20;;;8.57;;
62268;SDS011;56517;51.634;5.566;2023-02-28T17:38:43;16.60;;;8.85;;
62268;SDS011;56517;51.634;5.566;2023-02-28T17:49:25;18.50;;;9.10;;
62268;SDS011;56517;51.634;5.566;2023-02-28T18:00:07;15.23;;;8.98;;
62268;SDS011;56517;51.634;5.566;2023-02-28T18:05:28;18.45;;;10.70;;
62268;SDS011;56517;51.634;5.566;2023-02-28T18:16:09;21.20;;;10.13;;
62268;SDS011;56517;51.634;5.566;2023-02-28T18:26:51;28.15;;;11.07;;
62268;SDS011;56517;51.634;5.566;2023-02-28T18:32:11;15.10;;;9.73;;
62268;SDS011;56517;51.634;5.566;2023-02-28T18:42:53;15.63;;;10.30;;
62268;SDS011;56517;51.634;5.566;2023-02-28T18:53:35;13.95;;;9.88;;
62268;SDS011;56517;51.634;5.566;2023-02-28T18:58:56;20.88;;;11.50;;
62268;SDS011;56517;51.634;5.566;2023-02-28T19:09:37;18.70;;;10.82;;
62268;SDS011;56517;51.634;5.566;2023-02-28T19:20:18;19.52;;;11.68;;
62268;SDS011;56517;51.634;5.566;2023-02-28T19:31:00;26.27;;;15.50;;
62268;SDS011;56517;51.634;5.566;2023-02-28T19:36:21;29.98;;;16.55;;
62268;SDS011;56517;51.634;5.566;2023-02-28T19:47:02;35.72;;;17.38;;
62268;SDS011;56517;51.634;5.566;2023-02-28T19:57:44;32.95;;;15.73;;
62268;SDS011;56517;51.634;5.566;2023-02-28T20:08:25;22.38;;;13.20;;
62268;SDS011;56517;51.634;5.566;2023-02-28T20:19:07;25.73;;;13.18;;
62268;SDS011;56517;51.634;5.566;2023-02-28T20:29:48;17.25;;;11.30;;
62268;SDS011;56517;51.634;5.566;2023-02-28T20:40:29;20.98;;;12.50;;
62268;SDS011;56517;51.634;5.566;2023-02-28T20:51:11;18.42;;;10.85;;
62268;SDS011;56517;51.634;5.566;2023-02-28T21:01:52;21.73;;;11.73;;
62268;SDS011;56517;51.634;5.566;2023-02-28T21:12:34;15.48;;;11.00;;
62268;SDS011;56517;51.634;5.566;2023-02-28T21:23:15;18.17;;;11.30;;
62268;SDS011;56517;51.634;5.566;2023-02-28T21:33:57;21.38;;;12.32;;
62268;SDS011;56517;51.634;5.566;2023-02-28T21:39:19;31.33;;;13.88;;
62268;SDS011;56517;51.634;5.566;2023-02-28T21:44:40;33.92;;;15.15;;
62268;SDS011;56517;51.634;5.566;2023-02-28T21:55:21;20.92;;;12.35;;
62268;SDS011;56517;51.634;5.566;2023-02-28T22:11:30;16.52;;;11.48;;
62268;SDS011;56517;51.634;5.566;2023-02-28T22:16:51;20.85;;;11.98;;
62268;SDS011;56517;51.634;5.566;2023-02-28T22:27:33;12.43;;;10.05;;
62268;SDS011;56517;51.634;5.566;2023-02-28T22:38:14;18.88;;;10.80;;
62268;SDS011;56517;51.634;5.566;2023-02-28T22:43:35;18.77;;;11.15;;
62268;SDS011;56517;51.634;5.566;2023-02-28T22:48:56;21.08;;;11.50;;
62268;SDS011;56517;51.634;5.566;2023-02-28T22:54:17;21.13;;;11.80;;
62268;SDS011;56517;51.634;5.566;2023-02-28T22:59:38;20.35;;;11.85;;
62268;SDS011;56517;51.634;5.566;2023-02-28T23:04:59;29.05;;;12.10;;
62268;SDS011;56517;51.634;5.566;2023-02-28T23:10:20;20.83;;;10.98;;
62268;SDS011;56517;51.634;5.566;2023-02-28T23:15:41;27.35;;;13.05;;
62268;SDS011;56517;51.634;5.566;2023-02-28T23:21:01;12.68;;;10.75;;
62268;SDS011;56517;51.634;5.566;2023-02-28T23:31:43;17.40;;;12.23;;
62268;SDS011;56517;51.634;5.566;2023-02-28T23:37:04;16.58;;;11.90;;
62268;SDS011;56517;51.634;5.566;2023-02-28T23:42:25;28.67;;;13.07;;
62268;SDS011;56517;51.634;5.566;2023-02-28T23:47:45;17.90;;;13.27;;
62268;SDS011;56517;51.634;5.566;2023-02-28T23:53:06;15.48;;;11.05;;
62268;SDS011;56517;51.634;5.566;2023-02-28T23:58:28;20.60;;;12.00;;
